createdAt,value
2018-06-27T00:01:28.456Z,100775.81
2018-06-27T00:03:56.059Z,100775.91
2018-06-27T00:06:24.268Z,100776.02
2018-06-27T00:08:51.900Z,100778.68
2018-06-27T00:11:19.522Z,100776.61
2018-06-27T00:13:48.164Z,100771.88
2018-06-27T00:16:15.762Z,100776.34
2018-06-27T00:18:43.359Z,100772.47
2018-06-27T00:21:12.639Z,100769.40
2018-06-27T00:23:40.633Z,100777.41
2018-06-27T00:26:08.251Z,100774.37
2018-06-27T00:28:36.523Z,100774.86
2018-06-27T00:31:04.161Z,100771.42
2018-06-27T00:33:32.077Z,100775.19
2018-06-27T00:35:59.679Z,100772.72
2018-06-27T00:38:28.436Z,100776.57
2018-06-27T00:40:56.074Z,100777.14
2018-06-27T00:43:24.292Z,100779.06
2018-06-27T00:45:51.913Z,100782.59
2018-06-27T00:48:19.551Z,100776.39
2018-06-27T00:50:47.166Z,100781.83
2018-06-27T00:53:15.215Z,100785.95
2018-06-27T00:55:42.831Z,100781.18
2018-06-27T00:58:10.462Z,100783.48
2018-06-27T01:00:38.098Z,100773.91
2018-06-27T01:03:06.101Z,100778.37
2018-06-27T01:05:33.700Z,100775.52
2018-06-27T01:08:01.302Z,100781.67
2018-06-27T01:10:29.771Z,100785.02
2018-06-27T01:12:57.745Z,100786.30
2018-06-27T01:15:25.355Z,100784.05
2018-06-27T01:17:54.302Z,100787.13
2018-06-27T01:20:22.370Z,100785.23
2018-06-27T01:22:51.430Z,100785.67
2018-06-27T01:25:19.233Z,100778.92
2018-06-27T01:27:47.272Z,100781.89
2018-06-27T01:30:15.280Z,100776.41
2018-06-27T01:32:43.730Z,100779.26
2018-06-27T01:35:11.379Z,100771.20
2018-06-27T01:37:39.045Z,100766.93
2018-06-27T01:40:07.169Z,100775.02
2018-06-27T01:42:35.394Z,100780.92
2018-06-27T01:45:04.530Z,100780.27
2018-06-27T01:47:32.779Z,100786.56
2018-06-27T01:50:00.403Z,100784.48
2018-06-27T01:52:28.023Z,100781.32
2018-06-27T01:54:55.638Z,100776.58
2018-06-27T01:57:23.651Z,100779.73
2018-06-27T01:59:51.269Z,100781.32
2018-06-27T02:02:18.932Z,100782.19
2018-06-27T02:04:46.847Z,100787.89
2018-06-27T02:07:14.479Z,100791.42
2018-06-27T02:09:42.269Z,100787.80
2018-06-27T02:12:09.900Z,100790.74
2018-06-27T02:14:38.577Z,100790.25
2018-06-27T02:17:06.191Z,100781.05
2018-06-27T02:19:34.408Z,100785.05
2018-06-27T02:22:02.029Z,100783.71
2018-06-27T02:24:29.980Z,100785.13
2018-06-27T02:26:57.613Z,100786.92
2018-06-27T02:29:25.208Z,100788.75
2018-06-27T02:31:53.188Z,100782.19
2018-06-27T02:34:21.645Z,100786.56
2018-06-27T02:36:49.253Z,100778.20
2018-06-27T02:39:17.163Z,100777.83
2018-06-27T02:41:45.712Z,100780.95
2018-06-27T02:44:13.312Z,100780.58
2018-06-27T02:46:43.288Z,100782.95
2018-06-27T02:49:10.921Z,100780.80
2018-06-27T02:51:38.532Z,100779.17
2018-06-27T02:54:06.911Z,100784.50
2018-06-27T02:56:36.911Z,100788.22
2018-06-27T02:59:04.516Z,100790.41
2018-06-27T03:01:32.138Z,100785.09
2018-06-27T03:04:00.132Z,100787.38
2018-06-27T03:06:27.739Z,100787.84
2018-06-27T03:08:55.960Z,100786.59
2018-06-27T03:11:23.576Z,100788.30
2018-06-27T03:13:52.561Z,100790.04
2018-06-27T03:16:20.172Z,100790.13
2018-06-27T03:18:47.856Z,100791.77
2018-06-27T03:21:15.827Z,100793.86
2018-06-27T03:23:43.483Z,100792.08
2018-06-27T03:26:11.147Z,100794.63
2018-06-27T03:28:40.668Z,100796.38
2018-06-27T03:31:08.277Z,100795.77
2018-06-27T03:33:35.944Z,100801.77
2018-06-27T03:36:04.634Z,100796.53
2018-06-27T03:38:32.262Z,100792.28
2018-06-27T03:40:59.911Z,100802.81
2018-06-27T03:43:27.602Z,100796.00
2018-06-27T03:45:56.039Z,100802.44
2018-06-27T03:48:23.671Z,100794.38
2018-06-27T03:50:51.267Z,100799.20
2018-06-27T03:53:18.903Z,100797.78
2018-06-27T03:55:46.523Z,100796.28
2018-06-27T03:58:15.000Z,100793.78
2018-06-27T04:00:43.124Z,100803.58
2018-06-27T04:03:11.195Z,100803.78
2018-06-27T04:05:38.799Z,100799.41
2018-06-27T04:08:06.410Z,100800.72
2018-06-27T04:10:34.016Z,100801.62
2018-06-27T04:13:01.983Z,100797.62
2018-06-27T04:15:29.566Z,100805.41
2018-06-27T04:17:57.180Z,100799.47
2018-06-27T04:20:25.061Z,100800.19
2018-06-27T04:22:53.356Z,100794.25
2018-06-27T04:25:20.987Z,100795.37
2018-06-27T04:27:50.199Z,100803.85
2018-06-27T04:30:19.668Z,100804.73
2018-06-27T04:32:48.355Z,100804.61
2018-06-27T04:35:16.230Z,100800.29
2018-06-27T04:37:44.379Z,100800.61
2018-06-27T04:40:12.516Z,100799.02
2018-06-27T04:42:40.519Z,100793.91
2018-06-27T04:45:08.155Z,100793.16
2018-06-27T04:47:35.759Z,100797.38
2018-06-27T04:50:04.203Z,100797.45
2018-06-27T04:52:31.812Z,100797.89
2018-06-27T04:54:59.573Z,100792.80
2018-06-27T04:57:27.331Z,100802.23
2018-06-27T04:59:55.743Z,100795.26
2018-06-27T05:02:23.610Z,100793.48
2018-06-27T05:04:51.518Z,100797.89
2018-06-27T05:07:19.138Z,100784.80
2018-06-27T05:09:48.355Z,100796.13
2018-06-27T05:12:16.839Z,100799.61
2018-06-27T05:14:44.795Z,100793.59
2018-06-27T05:17:12.434Z,100802.30
2018-06-27T05:19:40.427Z,100804.06
2018-06-27T05:22:09.332Z,100807.05
2018-06-27T05:24:37.803Z,100799.30
2018-06-27T05:27:06.411Z,100802.24
2018-06-27T05:29:34.134Z,100804.23
2018-06-27T05:32:01.772Z,100804.13
2018-06-27T05:34:29.670Z,100805.70
2018-06-27T05:36:57.343Z,100809.23
2018-06-27T05:39:24.971Z,100805.84
2018-06-27T05:41:53.698Z,100803.66
2018-06-27T05:44:21.366Z,100808.14
2018-06-27T05:46:48.989Z,100809.92
2018-06-27T05:49:17.630Z,100810.36
2018-06-27T05:51:46.074Z,100804.09
2018-06-27T05:54:13.677Z,100805.84
2018-06-27T05:56:41.584Z,100806.52
2018-06-27T05:59:09.204Z,100812.55
2018-06-27T06:01:37.163Z,100808.24
2018-06-27T06:04:05.139Z,100810.21
2018-06-27T06:06:32.785Z,100810.51
2018-06-27T06:09:00.545Z,100812.85
2018-06-27T06:11:29.239Z,100812.27
2018-06-27T06:13:56.864Z,100818.75
2018-06-27T06:16:24.551Z,100816.18
2018-06-27T06:18:52.427Z,100815.11
2018-06-27T06:21:21.484Z,100812.20
2018-06-27T06:23:49.763Z,100813.16
2018-06-27T06:26:17.984Z,100803.69
2018-06-27T06:28:45.601Z,100804.50
2018-06-27T06:31:13.203Z,100805.78
2018-06-27T06:33:41.099Z,100801.80
2018-06-27T06:36:08.714Z,100810.80
2018-06-27T06:38:36.323Z,100811.35
2018-06-27T06:41:04.222Z,100808.86
2018-06-27T06:43:32.402Z,100811.76
2018-06-27T06:46:00.901Z,100813.91
2018-06-27T06:48:30.772Z,100814.24
2018-06-27T06:50:58.423Z,100812.70
2018-06-27T06:53:27.843Z,100818.41
2018-06-27T06:55:55.833Z,100808.08
2018-06-27T06:58:23.496Z,100812.14
2018-06-27T07:00:51.125Z,100801.83
2018-06-27T07:03:19.019Z,100805.83
2018-06-27T07:05:46.616Z,100807.75
2018-06-27T07:08:14.226Z,100801.76
2018-06-27T07:10:42.138Z,100804.74
2018-06-27T07:13:10.415Z,100801.17
2018-06-27T07:15:38.155Z,100803.63
2018-06-27T07:18:06.300Z,100809.16
2018-06-27T07:20:34.244Z,100802.16
2018-06-27T07:23:02.959Z,100794.55
2018-06-27T07:25:31.438Z,100790.08
2018-06-27T07:27:59.100Z,100794.57
2018-06-27T07:30:26.889Z,100791.73
2018-06-27T07:32:54.821Z,100794.00
2018-06-27T07:35:23.158Z,100796.60
2018-06-27T07:37:51.402Z,100786.51
2018-06-27T07:40:19.463Z,100797.09
2018-06-27T07:42:48.535Z,100791.39
2018-06-27T07:45:16.133Z,100786.01
2018-06-27T07:47:44.042Z,100792.47
2018-06-27T07:50:12.360Z,100790.49
2018-06-27T07:52:39.984Z,100797.46
2018-06-27T07:55:07.891Z,100796.31
2018-06-27T07:57:35.497Z,100796.66
2018-06-27T08:00:03.193Z,100792.95
2018-06-27T08:02:31.783Z,100798.09
2018-06-27T08:04:59.374Z,100798.11
2018-06-27T08:07:26.988Z,100797.58
2018-06-27T08:09:55.465Z,100796.07
2018-06-27T08:12:23.151Z,100794.03
2018-06-27T08:14:51.576Z,100799.46
2018-06-27T08:17:20.072Z,100803.03
2018-06-27T08:19:47.683Z,100803.34
2018-06-27T08:22:15.284Z,100799.98
2018-06-27T08:24:44.762Z,100800.47
2018-06-27T08:27:12.357Z,100800.78
2018-06-27T08:29:40.016Z,100802.15
2018-06-27T08:32:07.923Z,100801.45
2018-06-27T08:34:36.067Z,100801.80
2018-06-27T08:37:03.686Z,100799.91
2018-06-27T08:39:31.563Z,100805.14
2018-06-27T08:42:00.813Z,100803.39
2018-06-27T08:44:28.591Z,100800.81
2018-06-27T08:46:56.526Z,100796.58
2018-06-27T08:49:24.180Z,100786.70
2018-06-27T08:51:51.837Z,100787.36
2018-06-27T08:54:20.435Z,100782.22
2018-06-27T08:56:48.684Z,100777.92
2018-06-27T08:59:17.101Z,100776.67
2018-06-27T09:01:45.033Z,100770.81
2018-06-27T09:04:12.663Z,100775.14
2018-06-27T09:06:40.550Z,100773.88
2018-06-27T09:09:08.675Z,100770.24
2018-06-27T09:11:36.279Z,100769.59
2018-06-27T09:14:03.883Z,100768.73
2018-06-27T09:16:31.795Z,100765.37
2018-06-27T09:18:59.752Z,100772.05
2018-06-27T09:21:27.360Z,100772.26
2018-06-27T09:23:56.247Z,100764.28
2018-06-27T09:26:23.873Z,100766.77
2018-06-27T09:28:51.527Z,100762.64
2018-06-27T09:31:19.440Z,100762.13
2018-06-27T09:33:50.652Z,100767.55
2018-06-27T09:36:18.812Z,100763.59
2018-06-27T09:38:46.720Z,100763.73
2018-06-27T09:41:14.339Z,100753.47
2018-06-27T09:43:43.676Z,100749.37
2018-06-27T09:46:12.303Z,100753.95
2018-06-27T09:48:43.454Z,100745.94
2018-06-27T09:51:12.092Z,100750.27
2018-06-27T09:53:39.708Z,100742.59
2018-06-27T09:56:07.362Z,100744.98
2018-06-27T09:58:35.243Z,100747.67
2018-06-27T10:01:02.883Z,100742.56
2018-06-27T10:03:31.159Z,100748.98
2018-06-27T10:05:59.068Z,100752.44
2018-06-27T10:08:26.698Z,100742.89
2018-06-27T10:10:54.335Z,100736.85
2018-06-27T10:13:22.209Z,100740.05
2018-06-27T10:15:49.880Z,100739.97
2018-06-27T10:18:17.482Z,100726.30
2018-06-27T10:20:45.371Z,100733.23
2018-06-27T10:23:12.979Z,100722.64
2018-06-27T10:28:18.699Z,100727.78
2018-06-27T10:30:46.320Z,100723.49
2018-06-27T10:33:19.284Z,100729.14
2018-06-27T10:35:47.223Z,100724.49
2018-06-27T10:38:14.839Z,100721.16
2018-06-27T10:40:43.392Z,100723.70
2018-06-27T10:43:11.278Z,100716.06
2018-06-27T10:45:39.925Z,100714.48
2018-06-27T10:48:08.559Z,100711.80
2018-06-27T10:50:36.463Z,100699.14
2018-06-27T10:53:04.891Z,100700.52
2018-06-27T10:55:32.540Z,100703.67
2018-06-27T10:58:00.487Z,100697.98
2018-06-27T11:00:28.906Z,100702.34
2018-06-27T11:02:56.542Z,100688.80
2018-06-27T11:05:25.292Z,100695.52
2018-06-27T11:07:52.909Z,100690.84
2018-06-27T11:10:20.540Z,100686.32
2018-06-27T11:12:49.477Z,100689.39
2018-06-27T11:15:17.822Z,100686.15
2018-06-27T11:17:45.519Z,100683.51
2018-06-27T11:20:14.251Z,100680.34
2018-06-27T11:22:42.675Z,100684.27
2018-06-27T11:25:10.366Z,100682.10
2018-06-27T11:27:38.290Z,100677.67
2018-06-27T11:30:06.412Z,100674.18
2018-06-27T11:32:34.042Z,100670.45
2018-06-27T11:35:02.456Z,100667.28
2018-06-27T11:37:30.095Z,100672.72
2018-06-27T11:39:58.439Z,100661.30
2018-06-27T11:42:26.359Z,100661.71
2018-06-27T11:44:55.372Z,100655.69
2018-06-27T11:47:23.963Z,100657.96
2018-06-27T11:49:53.426Z,100654.11
2018-06-27T11:52:22.995Z,100650.84
2018-06-27T11:54:56.160Z,100657.30
2018-06-27T11:57:24.022Z,100656.02
2018-06-27T11:59:51.623Z,100657.47
2018-06-27T12:02:20.532Z,100648.48
2018-06-27T12:04:48.418Z,100647.20
2018-06-27T12:07:16.069Z,100644.30
2018-06-27T12:09:44.688Z,100648.10
2018-06-27T12:12:12.588Z,100645.66
2018-06-27T12:14:41.349Z,100648.25
2018-06-27T12:17:09.821Z,100641.43
2018-06-27T12:19:38.393Z,100639.80
2018-06-27T12:22:07.259Z,100642.84
2018-06-27T12:24:35.520Z,100642.66
2018-06-27T12:27:03.436Z,100648.06
2018-06-27T12:29:32.351Z,100641.38
2018-06-27T12:32:01.605Z,100635.94
2018-06-27T12:34:29.505Z,100635.95
2018-06-27T12:36:57.374Z,100634.25
2018-06-27T12:39:27.995Z,100625.73
2018-06-27T12:41:56.519Z,100621.32
2018-06-27T12:44:24.186Z,100623.63
2018-06-27T12:46:51.820Z,100629.06
2018-06-27T12:49:20.334Z,100622.12
2018-06-27T12:51:50.096Z,100615.66
2018-06-27T12:54:18.557Z,100618.86
2018-06-27T12:56:46.456Z,100618.12
2018-06-27T12:59:14.347Z,100615.51
2018-06-27T13:01:43.546Z,100609.32
2018-06-27T13:04:11.575Z,100612.99
2018-06-27T13:06:39.191Z,100608.72
2018-06-27T13:09:06.955Z,100606.93
2018-06-27T13:11:36.079Z,100603.49
2018-06-27T13:14:03.707Z,100599.67
2018-06-27T13:16:32.395Z,100607.92
2018-06-27T13:19:02.948Z,100607.18
2018-06-27T13:21:31.171Z,100609.97
2018-06-27T13:24:00.500Z,100602.19
2018-06-27T13:26:28.413Z,100602.48
2018-06-27T13:28:56.991Z,100603.34
2018-06-27T13:31:27.188Z,100597.61
2018-06-27T13:33:55.899Z,100611.47
2018-06-27T13:36:23.511Z,100603.98
2018-06-27T13:38:54.948Z,100605.93
2018-06-27T13:41:22.843Z,100601.83
2018-06-27T13:43:51.228Z,100599.66
2018-06-27T13:46:19.695Z,100598.28
2018-06-27T13:48:47.594Z,100601.88
2018-06-27T13:51:19.152Z,100601.62
2018-06-27T13:53:46.788Z,100599.11
2018-06-27T13:56:14.668Z,100589.11
2018-06-27T13:58:42.351Z,100587.17
2018-06-27T14:01:09.963Z,100599.97
2018-06-27T14:03:41.451Z,100598.56
2018-06-27T14:06:09.051Z,100595.20
2018-06-27T14:08:36.679Z,100593.55
2018-06-27T14:11:06.322Z,100591.61
2018-06-27T14:13:35.559Z,100586.34
2018-06-27T14:16:04.716Z,100582.99
2018-06-27T14:18:32.969Z,100579.66
2018-06-27T14:21:00.675Z,100588.00
2018-06-27T14:23:28.390Z,100581.59
2018-06-27T14:25:56.517Z,100588.28
2018-06-27T14:28:24.149Z,100579.37
2018-06-27T14:30:51.836Z,100576.61
2018-06-27T14:33:20.488Z,100580.48
2018-06-27T14:35:48.112Z,100573.27
2018-06-27T14:38:16.565Z,100574.68
2018-06-27T14:40:44.516Z,100574.13
2018-06-27T14:43:12.212Z,100571.61
2018-06-27T14:45:39.897Z,100569.94
2018-06-27T14:48:08.880Z,100564.92
2018-06-27T14:50:37.715Z,100561.53
2018-06-27T14:53:05.404Z,100565.67
2018-06-27T14:55:33.312Z,100564.56
2018-06-27T14:58:03.609Z,100557.07
2018-06-27T15:00:32.319Z,100553.75
2018-06-27T15:03:02.284Z,100558.20
2018-06-27T15:05:32.461Z,100555.16
2018-06-27T15:08:00.139Z,100554.66
2018-06-27T15:10:30.635Z,100553.80
2018-06-27T15:12:58.297Z,100551.55
2018-06-27T15:15:27.391Z,100542.57
2018-06-27T15:17:56.464Z,100544.54
2018-06-27T15:20:25.083Z,100549.70
2018-06-27T15:22:52.699Z,100542.34
2018-06-27T15:25:20.339Z,100541.61
2018-06-27T15:27:47.949Z,100530.05
2018-06-27T15:30:16.854Z,100539.20
2018-06-27T15:32:44.673Z,100540.98
2018-06-27T15:35:12.360Z,100540.48
2018-06-27T15:37:41.007Z,100534.38
2018-06-27T15:40:08.632Z,100529.94
2018-06-27T15:42:39.887Z,100533.83
2018-06-27T15:45:08.504Z,100531.90
2018-06-27T15:47:36.120Z,100531.89
2018-06-27T15:50:05.359Z,100529.93
2018-06-27T15:52:33.863Z,100527.43
2018-06-27T15:55:02.131Z,100527.12
2018-06-27T15:57:29.741Z,100527.39
2018-06-27T15:59:58.312Z,100526.85
2018-06-27T16:02:26.835Z,100521.00
2018-06-27T16:04:54.451Z,100521.28
2018-06-27T16:07:23.222Z,100520.72
2018-06-27T16:09:55.551Z,100518.20
2018-06-27T16:12:25.316Z,100513.97
2018-06-27T16:14:53.635Z,100518.68
2018-06-27T16:17:23.560Z,100523.26
2018-06-27T16:19:54.367Z,100522.50
2018-06-27T16:22:21.989Z,100511.42
2018-06-27T16:24:50.621Z,100510.63
2018-06-27T16:27:18.523Z,100511.23
2018-06-27T16:29:47.042Z,100519.59
2018-06-27T16:32:14.679Z,100524.25
2018-06-27T16:34:43.187Z,100521.94
2018-06-27T16:37:11.159Z,100529.75
2018-06-27T16:39:38.763Z,100527.90
2018-06-27T16:42:07.490Z,100529.00
2018-06-27T16:44:35.212Z,100527.09
2018-06-27T16:47:03.391Z,100522.75
2018-06-27T16:49:31.535Z,100513.79
2018-06-27T16:51:59.143Z,100518.04
2018-06-27T16:54:26.907Z,100516.91
2018-06-27T16:56:55.527Z,100520.58
2018-06-27T16:59:23.204Z,100517.49
2018-06-27T17:01:50.847Z,100523.44
2018-06-27T17:04:19.039Z,100524.08
2018-06-27T17:06:46.586Z,100524.19
2018-06-27T17:09:15.990Z,100531.93
2018-06-27T17:11:43.878Z,100527.34
2018-06-27T17:14:11.800Z,100522.14
2018-06-27T17:16:43.311Z,100526.91
2018-06-27T17:19:12.228Z,100525.84
2018-06-27T17:21:40.448Z,100518.27
2018-06-27T17:24:08.051Z,100518.65
2018-06-27T17:26:36.363Z,100515.55
2018-06-27T17:29:06.395Z,100520.05
2018-06-27T17:31:38.346Z,100520.53
2018-06-27T17:34:08.123Z,100520.17
2018-06-27T17:36:35.716Z,100521.67
2018-06-27T17:39:03.700Z,100532.02
2018-06-27T17:41:33.995Z,100537.95
2018-06-27T17:44:02.428Z,100529.73
2018-06-27T17:46:30.394Z,100535.66
2018-06-27T17:48:59.559Z,100530.69
2018-06-27T17:51:28.369Z,100540.00
2018-06-27T17:54:01.321Z,100542.34
2018-06-27T17:56:30.304Z,100542.63
2018-06-27T17:58:58.672Z,100544.77
2018-06-27T18:01:28.141Z,100543.36
2018-06-27T18:03:57.187Z,100544.93
2018-06-27T18:06:24.968Z,100541.44
2018-06-27T18:08:53.752Z,100544.75
2018-06-27T18:11:21.358Z,100543.98
2018-06-27T18:13:49.679Z,100548.66
2018-06-27T18:16:26.285Z,100542.44
2018-06-27T18:18:54.595Z,100544.06
2018-06-27T18:21:22.828Z,100542.30
2018-06-27T18:23:51.475Z,100546.14
2018-06-27T18:26:19.264Z,100544.19
2018-06-27T18:28:47.556Z,100543.78
2018-06-27T18:31:15.425Z,100546.77
2018-06-27T18:33:43.023Z,100543.95
2018-06-27T18:36:10.944Z,100544.89
2018-06-27T18:38:40.303Z,100549.05
2018-06-27T18:41:07.913Z,100549.63
2018-06-27T18:43:37.228Z,100555.10
2018-06-27T18:46:06.768Z,100553.60
2018-06-27T18:48:36.478Z,100554.36
2018-06-27T18:51:05.676Z,100551.39
2018-06-27T18:53:37.264Z,100561.66
2018-06-27T18:56:06.284Z,100562.08
2018-06-27T18:58:35.502Z,100561.14
2018-06-27T19:01:05.311Z,100558.34
2018-06-27T19:03:33.327Z,100561.48
2018-06-27T19:06:03.612Z,100560.52
2018-06-27T19:08:33.164Z,100563.65
2018-06-27T19:11:02.306Z,100563.41
2018-06-27T19:13:31.078Z,100562.47
2018-06-27T19:16:00.563Z,100562.87
2018-06-27T19:18:31.763Z,100577.04
2018-06-27T19:21:00.287Z,100568.64
2018-06-27T19:23:29.150Z,100569.05
2018-06-27T19:25:57.644Z,100567.91
2018-06-27T19:28:30.421Z,100562.55
2018-06-27T19:31:01.499Z,100573.25
2018-06-27T19:33:29.143Z,100571.95
2018-06-27T19:35:56.755Z,100571.67
2018-06-27T19:38:24.694Z,100577.48
2018-06-27T19:40:55.257Z,100580.27
2018-06-27T19:43:22.859Z,100579.63
2018-06-27T19:45:50.880Z,100584.94
2018-06-27T19:48:19.099Z,100587.20
2018-06-27T19:50:47.613Z,100582.65
2018-06-27T19:53:17.970Z,100586.59
2018-06-27T19:55:46.187Z,100587.96
2018-06-27T19:58:13.813Z,100595.11
2018-06-27T20:00:43.383Z,100602.58
2018-06-27T20:03:11.611Z,100599.37
2018-06-27T20:05:41.066Z,100604.17
2018-06-27T20:08:09.531Z,100604.86
2018-06-27T20:10:37.585Z,100605.38
2018-06-27T20:13:06.741Z,100608.25
2018-06-27T20:15:37.177Z,100609.80
2018-06-27T20:18:07.694Z,100612.53
2018-06-27T20:20:36.300Z,100611.88
2018-06-27T20:23:04.696Z,100614.56
2018-06-27T20:25:39.207Z,100619.48
2018-06-27T20:28:07.712Z,100619.33
2018-06-27T20:30:39.243Z,100618.30
2018-06-27T20:33:08.260Z,100619.98
2018-06-27T20:35:36.423Z,100625.06
2018-06-27T20:38:06.155Z,100623.19
2018-06-27T20:40:36.395Z,100619.77
2018-06-27T20:43:04.272Z,100622.08
2018-06-27T20:45:32.436Z,100619.02
2018-06-27T20:48:00.388Z,100618.14
2018-06-27T20:50:28.111Z,100619.80
2018-06-27T20:52:55.807Z,100624.84
2018-06-27T20:55:24.513Z,100621.24
2018-06-27T20:58:02.562Z,100625.08
2018-06-27T21:00:33.811Z,100625.19
2018-06-27T21:03:02.926Z,100628.38
2018-06-27T21:05:32.779Z,100635.05
2018-06-27T21:08:06.123Z,100639.39
2018-06-27T21:10:36.670Z,100637.80
2018-06-27T21:13:05.318Z,100637.75
2018-06-27T21:18:06.207Z,100636.63
2018-06-27T21:20:38.407Z,100640.47
2018-06-27T21:23:07.371Z,100643.44
2018-06-27T21:25:41.623Z,100647.28
2018-06-27T21:28:10.462Z,100650.25
2018-06-27T21:30:39.741Z,100652.70
2018-06-27T21:33:07.662Z,100646.42
2018-06-27T21:35:35.897Z,100652.28
2018-06-27T21:38:05.327Z,100655.44
2018-06-27T21:40:37.259Z,100656.36
2018-06-27T21:43:05.816Z,100656.48
2018-06-27T21:45:33.450Z,100660.78
2018-06-27T21:48:01.379Z,100655.02
2018-06-27T21:50:35.047Z,100655.62
2018-06-27T21:53:03.307Z,100657.91
2018-06-27T21:55:33.750Z,100656.54
2018-06-27T21:58:01.603Z,100650.74
2018-06-27T22:00:29.234Z,100661.84
2018-06-27T22:02:57.673Z,100663.61
2018-06-27T22:05:25.303Z,100668.10
2018-06-27T22:07:54.396Z,100670.25
2018-06-27T22:10:22.910Z,100666.31
2018-06-27T22:12:50.855Z,100667.25
2018-06-27T22:15:19.291Z,100665.80
2018-06-27T22:17:47.599Z,100667.56
2018-06-27T22:20:16.892Z,100669.04
2018-06-27T22:22:44.798Z,100678.52
2018-06-27T22:25:12.633Z,100669.25
2018-06-27T22:27:40.474Z,100673.66
2018-06-27T22:30:08.397Z,100672.91
2018-06-27T22:32:36.062Z,100679.08
2018-06-27T22:35:03.695Z,100676.17
2018-06-27T22:37:31.403Z,100673.58
2018-06-27T22:40:00.309Z,100676.19
2018-06-27T22:42:27.926Z,100670.59
2018-06-27T22:44:55.551Z,100674.58
2018-06-27T22:47:23.467Z,100675.20
2018-06-27T22:49:53.052Z,100667.42
2018-06-27T22:52:21.307Z,100667.55
2018-06-27T22:54:52.493Z,100668.20
2018-06-27T22:57:21.224Z,100665.59
2018-06-27T22:59:51.889Z,100662.47
2018-06-27T23:02:21.324Z,100665.55
2018-06-27T23:04:49.294Z,100669.79
2018-06-27T23:09:52.392Z,100661.16
2018-06-27T23:12:20.567Z,100664.28
2018-06-27T23:14:48.187Z,100669.59
2018-06-27T23:17:17.348Z,100663.56
2018-06-27T23:19:45.871Z,100659.25
2018-06-27T23:22:14.027Z,100665.30
2018-06-27T23:24:41.930Z,100663.55
2018-06-27T23:27:10.580Z,100671.68
2018-06-27T23:29:38.211Z,100670.37
2018-06-27T23:32:06.129Z,100665.41
2018-06-27T23:34:33.764Z,100662.50
2018-06-27T23:37:01.388Z,100667.17
2018-06-27T23:39:29.268Z,100666.59
2018-06-27T23:41:58.509Z,100669.56
2018-06-27T23:44:26.127Z,100661.28
2018-06-27T23:46:54.031Z,100663.27
2018-06-27T23:49:21.675Z,100659.49
2018-06-27T23:51:50.207Z,100663.80
2018-06-27T23:54:17.815Z,100661.89
2018-06-27T23:56:47.957Z,100663.64
2018-06-27T23:59:15.585Z,100669.55
